TimePST,TemperatureF,Dew PointF,Humidity,Sea Level PressureIn,VisibilityMPH,Wind Direction,Wind SpeedMPH,Gust SpeedMPH,PrecipitationIn,Events,Conditions,WindDirDegrees,DateUTC
12:53 AM,43.0,37.9,82,29.95,10.0,South,11.5,-,0.02,Rain,Light Rain,180,2013-02-07 08:53:00
1:53 AM,42.1,37.0,82,29.97,10.0,South,10.4,-,0.00,,Mostly Cloudy,170,2013-02-07 09:53:00
2:53 AM,41.0,37.0,86,29.99,10.0,SSE,5.8,-,N/A,,Scattered Clouds,160,2013-02-07 10:53:00
3:53 AM,42.1,37.0,82,30.00,10.0,South,8.1,-,N/A,,Mostly Cloudy,180,2013-02-07 11:53:00
4:53 AM,41.0,37.0,86,30.01,10.0,SSE,5.8,-,N/A,,Mostly Cloudy,150,2013-02-07 12:53:00
5:53 AM,41.0,36.0,82,30.01,10.0,South,9.2,-,N/A,,Scattered Clouds,180,2013-02-07 13:53:00
6:53 AM,41.0,36.0,82,30.01,10.0,SSW,15.0,-,N/A,,Scattered Clouds,200,2013-02-07 14:53:00
7:53 AM,41.0,36.0,82,30.03,10.0,Calm,Calm,-,N/A,,Mostly Cloudy,0,2013-02-07 15:53:00
8:30 AM,41.0,37.4,87,30.04,10.0,ESE,5.8,-,N/A,,Mostly Cloudy,120,2013-02-07 16:30:00
8:53 AM,42.1,37.0,82,30.04,10.0,Variable,4.6,-,N/A,,Mostly Cloudy,0,2013-02-07 16:53:00
9:53 AM,43.0,37.0,80,30.04,10.0,Variable,3.5,-,N/A,,Mostly Cloudy,0,2013-02-07 17:53:00
10:42 AM,44.6,37.4,76,30.05,10.0,Calm,Calm,-,N/A,,Mostly Cloudy,0,2013-02-07 18:42:00
10:53 AM,45.0,37.0,74,30.05,10.0,South,6.9,-,N/A,,Mostly Cloudy,170,2013-02-07 18:53:00
11:12 AM,44.6,37.4,76,30.05,10.0,South,5.8,-,N/A,,Mostly Cloudy,170,2013-02-07 19:12:00
11:53 AM,46.0,37.0,71,30.04,10.0,Calm,Calm,-,N/A,,Mostly Cloudy,0,2013-02-07 19:53:00
12:53 PM,48.0,35.1,61,30.02,10.0,Calm,Calm,-,N/A,,Mostly Cloudy,0,2013-02-07 20:53:00
1:53 PM,48.0,36.0,63,30.01,10.0,North,4.6,-,N/A,,Mostly Cloudy,350,2013-02-07 21:53:00
2:53 PM,48.0,34.0,58,30.01,10.0,ENE,3.5,-,N/A,,Mostly Cloudy,70,2013-02-07 22:53:00
3:53 PM,48.0,34.0,58,30.01,10.0,Calm,Calm,-,N/A,,Mostly Cloudy,0,2013-02-07 23:53:00
4:53 PM,46.9,34.0,61,30.03,10.0,NE,3.5,-,N/A,,Mostly Cloudy,40,2013-02-08 00:53:00
5:53 PM,45.0,37.0,74,30.06,10.0,SW,6.9,-,N/A,,Mostly Cloudy,220,2013-02-08 01:53:00
6:53 PM,44.1,36.0,73,30.07,10.0,SW,6.9,-,N/A,,Mostly Cloudy,230,2013-02-08 02:53:00
7:53 PM,41.0,36.0,82,30.09,10.0,NW,6.9,-,N/A,,Scattered Clouds,310,2013-02-08 03:53:00
8:53 PM,39.9,36.0,86,30.11,10.0,Calm,Calm,-,N/A,,Clear,0,2013-02-08 04:53:00
9:53 PM,37.9,34.0,86,30.13,10.0,Calm,Calm,-,N/A,,Clear,0,2013-02-08 05:53:00
10:53 PM,37.0,34.0,89,30.14,10.0,Calm,Calm,-,N/A,,Clear,0,2013-02-08 06:53:00
11:53 PM,36.0,34.0,93,30.17,10.0,Calm,Calm,-,N/A,,Partly Cloudy,0,2013-02-08 07:53:00